sensor_id;sensor_type;location;lat;lon;timestamp;temperature;humidity
64833;HTU21D;51290;45.060;38.948;2023-03-04T00:02:01;5.19;55.57
64833;HTU21D;51290;45.060;38.948;2023-03-04T00:04:28;5.16;55.59
64833;HTU21D;51290;45.060;38.948;2023-03-04T00:06:54;5.13;55.64
64833;HTU21D;51290;45.060;38.948;2023-03-04T00:09:19;5.09;55.61
64833;HTU21D;51290;45.060;38.948;2023-03-04T00:11:45;5.06;55.61
64833;HTU21D;51290;45.060;38.948;2023-03-04T00:14:11;5.04;55.65
64833;HTU21D;51290;45.060;38.948;2023-03-04T00:16:37;5.00;55.68
64833;HTU21D;51290;45.060;38.948;2023-03-04T00:19:03;4.97;55.71
64833;HTU21D;51290;45.060;38.948;2023-03-04T00:21:29;4.94;55.68
64833;HTU21D;51290;45.060;38.948;2023-03-04T00:23:55;4.91;55.67
64833;HTU21D;51290;45.060;38.948;2023-03-04T00:26:21;4.84;55.68
64833;HTU21D;51290;45.060;38.948;2023-03-04T00:28:48;4.79;55.71
64833;HTU21D;51290;45.060;38.948;2023-03-04T00:31:14;4.74;55.72
64833;HTU21D;51290;45.060;38.948;2023-03-04T00:33:40;4.67;55.75
64833;HTU21D;51290;45.060;38.948;2023-03-04T00:36:08;4.60;55.80
64833;HTU21D;51290;45.060;38.948;2023-03-04T00:38:35;4.53;55.85
64833;HTU21D;51290;45.060;38.948;2023-03-04T00:41:01;4.49;55.91
64833;HTU21D;51290;45.060;38.948;2023-03-04T00:43:27;4.42;55.96
64833;HTU21D;51290;45.060;38.948;2023-03-04T00:45:54;4.36;56.03
64833;HTU21D;51290;45.060;38.948;2023-03-04T00:48:20;4.31;56.10
64833;HTU21D;51290;45.060;38.948;2023-03-04T00:50:46;4.30;56.17
64833;HTU21D;51290;45.060;38.948;2023-03-04T00:53:14;4.28;56.18
64833;HTU21D;51290;45.060;38.948;2023-03-04T00:55:40;4.24;56.19
64833;HTU21D;51290;45.060;38.948;2023-03-04T00:58:06;4.21;56.22
64833;HTU21D;51290;45.060;38.948;2023-03-04T01:00:32;4.19;56.22
64833;HTU21D;51290;45.060;38.948;2023-03-04T01:02:58;4.16;56.23
64833;HTU21D;51290;45.060;38.948;2023-03-04T01:05:24;4.14;56.27
64833;HTU21D;51290;45.060;38.948;2023-03-04T01:07:50;4.10;56.30
64833;HTU21D;51290;45.060;38.948;2023-03-04T01:10:16;4.09;56.36
64833;HTU21D;51290;45.060;38.948;2023-03-04T01:12:44;4.06;56.40
64833;HTU21D;51290;45.060;38.948;2023-03-04T01:15:12;4.08;56.46
64833;HTU21D;51290;45.060;38.948;2023-03-04T01:17:39;4.08;56.49
64833;HTU21D;51290;45.060;38.948;2023-03-04T01:20:06;4.13;56.52
64833;HTU21D;51290;45.060;38.948;2023-03-04T01:22:32;4.15;56.55
64833;HTU21D;51290;45.060;38.948;2023-03-04T01:24:58;4.18;56.56
64833;HTU21D;51290;45.060;38.948;2023-03-04T01:27:25;4.22;56.60
64833;HTU21D;51290;45.060;38.948;2023-03-04T01:29:51;4.26;56.58
64833;HTU21D;51290;45.060;38.948;2023-03-04T01:32:17;4.32;56.55
64833;HTU21D;51290;45.060;38.948;2023-03-04T01:34:43;4.36;56.50
64833;HTU21D;51290;45.060;38.948;2023-03-04T01:37:10;4.39;56.42
64833;HTU21D;51290;45.060;38.948;2023-03-04T01:39:36;4.42;56.39
64833;HTU21D;51290;45.060;38.948;2023-03-04T01:42:02;4.43;56.44
64833;HTU21D;51290;45.060;38.948;2023-03-04T01:44:28;4.46;56.52
64833;HTU21D;51290;45.060;38.948;2023-03-04T01:46:55;4.49;56.41
64833;HTU21D;51290;45.060;38.948;2023-03-04T01:49:23;4.50;56.29
64833;HTU21D;51290;45.060;38.948;2023-03-04T01:51:52;4.48;56.27
64833;HTU21D;51290;45.060;38.948;2023-03-04T01:54:20;4.45;56.30
64833;HTU21D;51290;45.060;38.948;2023-03-04T01:56:47;4.42;56.38
64833;HTU21D;51290;45.060;38.948;2023-03-04T01:59:24;4.43;56.48
64833;HTU21D;51290;45.060;38.948;2023-03-04T02:01:52;4.44;56.49
64833;HTU21D;51290;45.060;38.948;2023-03-04T02:04:21;4.46;56.46
64833;HTU21D;51290;45.060;38.948;2023-03-04T02:06:50;4.46;56.41
64833;HTU21D;51290;45.060;38.948;2023-03-04T02:09:17;4.44;56.36
64833;HTU21D;51290;45.060;38.948;2023-03-04T02:11:45;4.43;56.35
64833;HTU21D;51290;45.060;38.948;2023-03-04T02:14:12;4.41;56.39
64833;HTU21D;51290;45.060;38.948;2023-03-04T02:16:39;4.41;56.44
64833;HTU21D;51290;45.060;38.948;2023-03-04T02:21:55;4.42;56.50
64833;HTU21D;51290;45.060;38.948;2023-03-04T02:24:42;4.45;56.53
64833;HTU21D;51290;45.060;38.948;2023-03-04T02:27:10;4.48;56.54
64833;HTU21D;51290;45.060;38.948;2023-03-04T02:29:37;4.51;56.52
64833;HTU21D;51290;45.060;38.948;2023-03-04T02:32:03;4.54;56.52
64833;HTU21D;51290;45.060;38.948;2023-03-04T02:34:33;4.58;56.52
64833;HTU21D;51290;45.060;38.948;2023-03-04T02:37:01;4.63;56.51
64833;HTU21D;51290;45.060;38.948;2023-03-04T02:39:36;4.65;56.47
64833;HTU21D;51290;45.060;38.948;2023-03-04T02:42:04;4.66;56.42
64833;HTU21D;51290;45.060;38.948;2023-03-04T02:44:37;4.66;56.43
64833;HTU21D;51290;45.060;38.948;2023-03-04T02:47:06;4.66;56.42
64833;HTU21D;51290;45.060;38.948;2023-03-04T02:49:35;4.66;56.49
64833;HTU21D;51290;45.060;38.948;2023-03-04T02:52:04;4.69;56.55
64833;HTU21D;51290;45.060;38.948;2023-03-04T02:54:31;4.71;56.55
64833;HTU21D;51290;45.060;38.948;2023-03-04T02:57:04;4.75;56.58
64833;HTU21D;51290;45.060;38.948;2023-03-04T02:59:32;4.77;56.52
64833;HTU21D;51290;45.060;38.948;2023-03-04T03:01:59;4.77;56.42
64833;HTU21D;51290;45.060;38.948;2023-03-04T03:04:25;4.74;56.45
64833;HTU21D;51290;45.060;38.948;2023-03-04T03:06:53;4.73;56.45
64833;HTU21D;51290;45.060;38.948;2023-03-04T03:09:20;4.73;56.55
64833;HTU21D;51290;45.060;38.948;2023-03-04T03:11:46;4.74;56.64
64833;HTU21D;51290;45.060;38.948;2023-03-04T03:14:13;4.77;56.68
64833;HTU21D;51290;45.060;38.948;2023-03-04T03:16:39;4.81;56.72
64833;HTU21D;51290;45.060;38.948;2023-03-04T03:19:05;4.87;56.72
64833;HTU21D;51290;45.060;38.948;2023-03-04T03:21:33;4.92;56.71
64833;HTU21D;51290;45.060;38.948;2023-03-04T03:23:59;4.96;56.71
64833;HTU21D;51290;45.060;38.948;2023-03-04T03:26:25;5.02;56.71
64833;HTU21D;51290;45.060;38.948;2023-03-04T03:28:51;5.08;56.69
64833;HTU21D;51290;45.060;38.948;2023-03-04T03:31:17;5.12;56.68
64833;HTU21D;51290;45.060;38.948;2023-03-04T03:33:45;5.18;56.67
64833;HTU21D;51290;45.060;38.948;2023-03-04T03:36:12;5.24;56.67
64833;HTU21D;51290;45.060;38.948;2023-03-04T03:38:38;5.30;56.65
64833;HTU21D;51290;45.060;38.948;2023-03-04T03:41:04;5.35;56.60
64833;HTU21D;51290;45.060;38.948;2023-03-04T03:43:30;5.41;56.54
64833;HTU21D;51290;45.060;38.948;2023-03-04T03:45:56;5.45;56.47
64833;HTU21D;51290;45.060;38.948;2023-03-04T03:48:22;5.48;56.45
64833;HTU21D;51290;45.060;38.948;2023-03-04T03:50:48;5.48;56.40
64833;HTU21D;51290;45.060;38.948;2023-03-04T03:53:14;5.49;56.39
64833;HTU21D;51290;45.060;38.948;2023-03-04T03:55:40;5.45;56.35
64833;HTU21D;51290;45.060;38.948;2023-03-04T03:58:06;5.41;56.38
64833;HTU21D;51290;45.060;38.948;2023-03-04T04:00:32;5.39;56.46
64833;HTU21D;51290;45.060;38.948;2023-03-04T04:02:59;5.38;56.58
64833;HTU21D;51290;45.060;38.948;2023-03-04T04:05:25;5.35;56.72
64833;HTU21D;51290;45.060;38.948;2023-03-04T04:07:52;5.36;56.77
64833;HTU21D;51290;45.060;38.948;2023-03-04T04:10:18;5.37;56.78
64833;HTU21D;51290;45.060;38.948;2023-03-04T04:12:45;5.37;56.81
64833;HTU21D;51290;45.060;38.948;2023-03-04T04:15:11;5.38;56.84
64833;HTU21D;51290;45.060;38.948;2023-03-04T04:17:37;5.38;56.84
64833;HTU21D;51290;45.060;38.948;2023-03-04T04:20:05;5.38;56.87
64833;HTU21D;51290;45.060;38.948;2023-03-04T04:22:31;5.36;57.03
64833;HTU21D;51290;45.060;38.948;2023-03-04T04:24:57;5.35;57.16
64833;HTU21D;51290;45.060;38.948;2023-03-04T04:27:23;5.32;57.17
64833;HTU21D;51290;45.060;38.948;2023-03-04T04:29:49;5.30;57.27
64833;HTU21D;51290;45.060;38.948;2023-03-04T04:32:15;5.28;57.31
64833;HTU21D;51290;45.060;38.948;2023-03-04T04:34:41;5.28;57.35
64833;HTU21D;51290;45.060;38.948;2023-03-04T04:37:07;5.28;57.40
64833;HTU21D;51290;45.060;38.948;2023-03-04T04:39:34;5.31;57.48
64833;HTU21D;51290;45.060;38.948;2023-03-04T04:42:00;5.34;57.53
64833;HTU21D;51290;45.060;38.948;2023-03-04T04:44:26;5.34;57.58
64833;HTU21D;51290;45.060;38.948;2023-03-04T04:46:52;5.37;57.61
64833;HTU21D;51290;45.060;38.948;2023-03-04T04:49:18;5.39;57.62
64833;HTU21D;51290;45.060;38.948;2023-03-04T04:51:44;5.42;57.64
64833;HTU21D;51290;45.060;38.948;2023-03-04T04:54:13;5.45;57.64
64833;HTU21D;51290;45.060;38.948;2023-03-04T04:56:39;5.49;57.70
64833;HTU21D;51290;45.060;38.948;2023-03-04T04:59:05;5.52;57.72
64833;HTU21D;51290;45.060;38.948;2023-03-04T05:01:33;5.53;57.75
64833;HTU21D;51290;45.060;38.948;2023-03-04T05:03:59;5.55;57.77
64833;HTU21D;51290;45.060;38.948;2023-03-04T05:06:26;5.56;57.80
64833;HTU21D;51290;45.060;38.948;2023-03-04T05:08:52;5.57;57.90
64833;HTU21D;51290;45.060;38.948;2023-03-04T05:11:19;5.57;57.96
64833;HTU21D;51290;45.060;38.948;2023-03-04T05:13:45;5.60;58.00
64833;HTU21D;51290;45.060;38.948;2023-03-04T05:16:12;5.62;58.05
64833;HTU21D;51290;45.060;38.948;2023-03-04T05:18:39;5.64;58.09
64833;HTU21D;51290;45.060;38.948;2023-03-04T05:21:05;5.67;58.17
64833;HTU21D;51290;45.060;38.948;2023-03-04T05:23:34;5.69;58.22
64833;HTU21D;51290;45.060;38.948;2023-03-04T05:26:01;5.71;58.25
64833;HTU21D;51290;45.060;38.948;2023-03-04T05:28:27;5.74;58.34
64833;HTU21D;51290;45.060;38.948;2023-03-04T05:30:53;5.76;58.38
64833;HTU21D;51290;45.060;38.948;2023-03-04T05:33:19;5.80;58.45
64833;HTU21D;51290;45.060;38.948;2023-03-04T05:35:46;5.83;58.51
64833;HTU21D;51290;45.060;38.948;2023-03-04T05:38:15;5.85;58.52
64833;HTU21D;51290;45.060;38.948;2023-03-04T05:40:41;5.89;58.59
64833;HTU21D;51290;45.060;38.948;2023-03-04T05:43:08;5.91;58.69
64833;HTU21D;51290;45.060;38.948;2023-03-04T05:45:34;5.95;58.77
64833;HTU21D;51290;45.060;38.948;2023-03-04T05:48:00;5.99;58.84
64833;HTU21D;51290;45.060;38.948;2023-03-04T05:50:28;6.00;58.88
64833;HTU21D;51290;45.060;38.948;2023-03-04T05:52:54;6.07;58.95
64833;HTU21D;51290;45.060;38.948;2023-03-04T05:55:20;6.12;58.97
64833;HTU21D;51290;45.060;38.948;2023-03-04T05:57:47;6.19;59.07
64833;HTU21D;51290;45.060;38.948;2023-03-04T06:00:15;6.21;59.19
64833;HTU21D;51290;45.060;38.948;2023-03-04T06:02:42;6.23;59.32
64833;HTU21D;51290;45.060;38.948;2023-03-04T06:05:10;6.26;59.41
64833;HTU21D;51290;45.060;38.948;2023-03-04T06:07:37;6.30;59.48
64833;HTU21D;51290;45.060;38.948;2023-03-04T06:10:04;6.35;59.47
64833;HTU21D;51290;45.060;38.948;2023-03-04T06:12:30;6.39;59.51
64833;HTU21D;51290;45.060;38.948;2023-03-04T06:14:56;6.42;59.61
64833;HTU21D;51290;45.060;38.948;2023-03-04T06:17:22;6.43;59.67
64833;HTU21D;51290;45.060;38.948;2023-03-04T06:19:48;6.49;59.83
64833;HTU21D;51290;45.060;38.948;2023-03-04T06:22:14;6.56;59.99
64833;HTU21D;51290;45.060;38.948;2023-03-04T06:24:40;6.67;60.02
64833;HTU21D;51290;45.060;38.948;2023-03-04T06:27:06;6.79;59.99
64833;HTU21D;51290;45.060;38.948;2023-03-04T06:29:32;6.86;60.01
64833;HTU21D;51290;45.060;38.948;2023-03-04T06:31:58;6.93;59.99
64833;HTU21D;51290;45.060;38.948;2023-03-04T06:34:24;6.93;60.06
64833;HTU21D;51290;45.060;38.948;2023-03-04T06:36:50;6.97;60.17
64833;HTU21D;51290;45.060;38.948;2023-03-04T06:39:16;7.01;60.22
64833;HTU21D;51290;45.060;38.948;2023-03-04T06:41:42;7.05;60.25
64833;HTU21D;51290;45.060;38.948;2023-03-04T06:44:08;7.12;60.26
64833;HTU21D;51290;45.060;38.948;2023-03-04T06:46:34;7.16;60.28
64833;HTU21D;51290;45.060;38.948;2023-03-04T06:49:01;7.20;60.34
64833;HTU21D;51290;45.060;38.948;2023-03-04T06:51:27;7.27;60.46
64833;HTU21D;51290;45.060;38.948;2023-03-04T06:53:53;7.37;60.52
64833;HTU21D;51290;45.060;38.948;2023-03-04T06:56:19;7.46;60.60
64833;HTU21D;51290;45.060;38.948;2023-03-04T06:58:45;7.57;60.64
64833;HTU21D;51290;45.060;38.948;2023-03-04T07:01:20;7.70;60.76
64833;HTU21D;51290;45.060;38.948;2023-03-04T07:03:47;7.81;60.74
64833;HTU21D;51290;45.060;38.948;2023-03-04T07:06:14;7.93;60.78
64833;HTU21D;51290;45.060;38.948;2023-03-04T07:08:41;8.08;60.73
64833;HTU21D;51290;45.060;38.948;2023-03-04T07:11:07;8.20;60.63
64833;HTU21D;51290;45.060;38.948;2023-03-04T07:13:33;8.30;60.56
64833;HTU21D;51290;45.060;38.948;2023-03-04T07:16:07;8.42;60.53
64833;HTU21D;51290;45.060;38.948;2023-03-04T07:18:34;8.51;60.54
64833;HTU21D;51290;45.060;38.948;2023-03-04T07:21:00;8.62;60.55
64833;HTU21D;51290;45.060;38.948;2023-03-04T07:23:26;8.76;60.62
64833;HTU21D;51290;45.060;38.948;2023-03-04T07:25:52;8.88;60.57
64833;HTU21D;51290;45.060;38.948;2023-03-04T07:28:18;9.00;60.44
64833;HTU21D;51290;45.060;38.948;2023-03-04T07:30:44;9.11;60.43
64833;HTU21D;51290;45.060;38.948;2023-03-04T07:33:10;9.22;60.39
64833;HTU21D;51290;45.060;38.948;2023-03-04T07:35:36;9.36;60.38
64833;HTU21D;51290;45.060;38.948;2023-03-04T07:38:02;9.50;60.39
64833;HTU21D;51290;45.060;38.948;2023-03-04T07:40:28;9.64;60.27
64833;HTU21D;51290;45.060;38.948;2023-03-04T07:42:55;9.79;60.20
64833;HTU21D;51290;45.060;38.948;2023-03-04T07:45:23;9.95;60.09
64833;HTU21D;51290;45.060;38.948;2023-03-04T07:47:50;10.08;60.02
64833;HTU21D;51290;45.060;38.948;2023-03-04T07:50:16;10.20;59.99
64833;HTU21D;51290;45.060;38.948;2023-03-04T07:52:45;10.31;59.85
64833;HTU21D;51290;45.060;38.948;2023-03-04T07:55:14;10.41;59.76
64833;HTU21D;51290;45.060;38.948;2023-03-04T07:57:44;10.48;59.73
64833;HTU21D;51290;45.060;38.948;2023-03-04T08:00:12;10.53;59.63
64833;HTU21D;51290;45.060;38.948;2023-03-04T08:02:39;10.56;59.58
64833;HTU21D;51290;45.060;38.948;2023-03-04T08:05:05;10.58;59.57
64833;HTU21D;51290;45.060;38.948;2023-03-04T08:07:31;10.55;59.52
64833;HTU21D;51290;45.060;38.948;2023-03-04T08:09:57;10.52;59.61
64833;HTU21D;51290;45.060;38.948;2023-03-04T08:12:25;10.50;59.68
64833;HTU21D;51290;45.060;38.948;2023-03-04T08:14:51;10.46;59.83
64833;HTU21D;51290;45.060;38.948;2023-03-04T08:17:17;10.46;59.91
64833;HTU21D;51290;45.060;38.948;2023-03-04T08:19:44;10.49;59.91
64833;HTU21D;51290;45.060;38.948;2023-03-04T08:22:10;10.51;59.93
64833;HTU21D;51290;45.060;38.948;2023-03-04T08:24:36;10.54;59.90
64833;HTU21D;51290;45.060;38.948;2023-03-04T08:27:02;10.54;59.82
64833;HTU21D;51290;45.060;38.948;2023-03-04T08:29:28;10.53;59.87
64833;HTU21D;51290;45.060;38.948;2023-03-04T08:31:54;10.53;59.97
64833;HTU21D;51290;45.060;38.948;2023-03-04T08:34:23;10.58;60.09
64833;HTU21D;51290;45.060;38.948;2023-03-04T08:36:49;10.66;60.12
64833;HTU21D;51290;45.060;38.948;2023-03-04T08:39:16;10.71;59.93
64833;HTU21D;51290;45.060;38.948;2023-03-04T08:41:43;10.69;59.83
64833;HTU21D;51290;45.060;38.948;2023-03-04T08:44:09;10.66;59.90
64833;HTU21D;51290;45.060;38.948;2023-03-04T08:46:40;10.60;59.97
64833;HTU21D;51290;45.060;38.948;2023-03-04T08:49:07;10.56;60.08
64833;HTU21D;51290;45.060;38.948;2023-03-04T08:51:35;10.55;60.16
64833;HTU21D;51290;45.060;38.948;2023-03-04T08:54:02;10.53;60.15
64833;HTU21D;51290;45.060;38.948;2023-03-04T08:56:28;10.51;60.15
64833;HTU21D;51290;45.060;38.948;2023-03-04T08:58:55;10.46;60.19
64833;HTU21D;51290;45.060;38.948;2023-03-04T09:01:21;10.42;60.25
64833;HTU21D;51290;45.060;38.948;2023-03-04T09:03:47;10.40;60.35
64833;HTU21D;51290;45.060;38.948;2023-03-04T09:06:15;10.39;60.36
64833;HTU21D;51290;45.060;38.948;2023-03-04T09:08:42;10.38;60.40
64833;HTU21D;51290;45.060;38.948;2023-03-04T09:11:08;10.40;60.42
64833;HTU21D;51290;45.060;38.948;2023-03-04T09:13:35;10.42;60.42
64833;HTU21D;51290;45.060;38.948;2023-03-04T09:16:01;10.44;60.38
64833;HTU21D;51290;45.060;38.948;2023-03-04T09:18:28;10.45;60.44
64833;HTU21D;51290;45.060;38.948;2023-03-04T09:20:54;10.49;60.44
64833;HTU21D;51290;45.060;38.948;2023-03-04T09:23:21;10.50;60.44
64833;HTU21D;51290;45.060;38.948;2023-03-04T09:25:48;10.52;60.44
64833;HTU21D;51290;45.060;38.948;2023-03-04T09:28:15;10.51;60.47
64833;HTU21D;51290;45.060;38.948;2023-03-04T09:30:42;10.49;60.54
64833;HTU21D;51290;45.060;38.948;2023-03-04T09:33:09;10.46;60.56
64833;HTU21D;51290;45.060;38.948;2023-03-04T09:35:34;10.41;60.48
64833;HTU21D;51290;45.060;38.948;2023-03-04T09:38:01;10.34;60.57
64833;HTU21D;51290;45.060;38.948;2023-03-04T09:40:31;10.22;60.86
64833;HTU21D;51290;45.060;38.948;2023-03-04T09:43:00;10.11;60.89
64833;HTU21D;51290;45.060;38.948;2023-03-04T09:45:39;9.99;61.06
64833;HTU21D;51290;45.060;38.948;2023-03-04T09:48:08;9.86;61.18
64833;HTU21D;51290;45.060;38.948;2023-03-04T09:50:40;9.78;61.34
64833;HTU21D;51290;45.060;38.948;2023-03-04T09:53:20;9.71;61.41
64833;HTU21D;51290;45.060;38.948;2023-03-04T09:55:51;9.66;61.48
64833;HTU21D;51290;45.060;38.948;2023-03-04T10:01:02;9.60;61.67
64833;HTU21D;51290;45.060;38.948;2023-03-04T10:03:45;9.63;61.76
64833;HTU21D;51290;45.060;38.948;2023-03-04T10:06:19;9.67;61.71
64833;HTU21D;51290;45.060;38.948;2023-03-04T10:11:27;9.68;61.54
64833;HTU21D;51290;45.060;38.948;2023-03-04T10:14:03;9.63;61.51
64833;HTU21D;51290;45.060;38.948;2023-03-04T10:16:41;9.55;61.60
64833;HTU21D;51290;45.060;38.948;2023-03-04T10:19:29;9.50;61.70
64833;HTU21D;51290;45.060;38.948;2023-03-04T10:22:00;9.48;61.79
64833;HTU21D;51290;45.060;38.948;2023-03-04T10:24:28;9.47;61.81
64833;HTU21D;51290;45.060;38.948;2023-03-04T10:27:01;9.45;61.90
64833;HTU21D;51290;45.060;38.948;2023-03-04T10:29:31;9.46;61.99
64833;HTU21D;51290;45.060;38.948;2023-03-04T10:31:57;9.50;62.09
64833;HTU21D;51290;45.060;38.948;2023-03-04T10:34:24;9.60;62.15
64833;HTU21D;51290;45.060;38.948;2023-03-04T10:39:26;9.85;62.12
64833;HTU21D;51290;45.060;38.948;2023-03-04T10:41:59;10.03;61.99
64833;HTU21D;51290;45.060;38.948;2023-03-04T10:44:26;10.18;61.85
64833;HTU21D;51290;45.060;38.948;2023-03-04T10:46:54;10.34;61.72
64833;HTU21D;51290;45.060;38.948;2023-03-04T10:49:22;10.48;61.63
64833;HTU21D;51290;45.060;38.948;2023-03-04T10:52:16;10.65;61.56
64833;HTU21D;51290;45.060;38.948;2023-03-04T10:54:49;10.79;61.45
64833;HTU21D;51290;45.060;38.948;2023-03-04T10:57:20;10.92;61.44
64833;HTU21D;51290;45.060;38.948;2023-03-04T10:59:58;11.09;61.36
64833;HTU21D;51290;45.060;38.948;2023-03-04T11:07:49;11.38;61.03
64833;HTU21D;51290;45.060;38.948;2023-03-04T11:10:18;11.38;61.03
64833;HTU21D;51290;45.060;38.948;2023-03-04T11:15:57;11.53;61.04
64833;HTU21D;51290;45.060;38.948;2023-03-04T11:18:47;11.58;60.92
64833;HTU21D;51290;45.060;38.948;2023-03-04T11:21:21;11.66;60.89
64833;HTU21D;51290;45.060;38.948;2023-03-04T11:24:00;11.70;60.77
64833;HTU21D;51290;45.060;38.948;2023-03-04T11:26:30;11.71;60.60
64833;HTU21D;51290;45.060;38.948;2023-03-04T11:32:09;11.63;60.56
64833;HTU21D;51290;45.060;38.948;2023-03-04T11:34:45;11.57;60.51
64833;HTU21D;51290;45.060;38.948;2023-03-04T11:37:21;11.51;60.62
64833;HTU21D;51290;45.060;38.948;2023-03-04T11:40:02;11.48;60.72
64833;HTU21D;51290;45.060;38.948;2023-03-04T11:45:37;11.46;60.58
64833;HTU21D;51290;45.060;38.948;2023-03-04T11:48:52;11.42;60.64
64833;HTU21D;51290;45.060;38.948;2023-03-04T11:51:31;11.43;60.67
64833;HTU21D;51290;45.060;38.948;2023-03-04T11:56:45;11.41;60.65
64833;HTU21D;51290;45.060;38.948;2023-03-04T12:01:48;11.31;60.66
64833;HTU21D;51290;45.060;38.948;2023-03-04T12:07:04;11.20;60.85
64833;HTU21D;51290;45.060;38.948;2023-03-04T12:10:05;11.22;60.94
64833;HTU21D;51290;45.060;38.948;2023-03-04T12:15:29;11.23;61.02
64833;HTU21D;51290;45.060;38.948;2023-03-04T12:26:39;11.22;60.90
64833;HTU21D;51290;45.060;38.948;2023-03-04T12:35:51;10.98;60.96
64833;HTU21D;51290;45.060;38.948;2023-03-04T12:38:35;10.90;61.14
64833;HTU21D;51290;45.060;38.948;2023-03-04T12:41:14;10.83;61.25
64833;HTU21D;51290;45.060;38.948;2023-03-04T12:44:30;10.77;61.43
64833;HTU21D;51290;45.060;38.948;2023-03-04T12:52:31;10.56;61.57
64833;HTU21D;51290;45.060;38.948;2023-03-04T12:55:02;10.42;61.67
64833;HTU21D;51290;45.060;38.948;2023-03-04T12:57:29;10.33;61.86
64833;HTU21D;51290;45.060;38.948;2023-03-04T13:03:51;10.27;62.25
64833;HTU21D;51290;45.060;38.948;2023-03-04T13:16:59;10.16;62.34
64833;HTU21D;51290;45.060;38.948;2023-03-04T13:28:17;10.15;62.53
64833;HTU21D;51290;45.060;38.948;2023-03-04T13:35:46;10.04;62.76
64833;HTU21D;51290;45.060;38.948;2023-03-04T13:38:22;9.99;62.84
64833;HTU21D;51290;45.060;38.948;2023-03-04T13:44:30;9.94;63.14
64833;HTU21D;51290;45.060;38.948;2023-03-04T13:46:30;9.88;63.19
64833;HTU21D;51290;45.060;38.948;2023-03-04T13:49:06;9.84;63.27
64833;HTU21D;51290;45.060;38.948;2023-03-04T13:51:40;9.83;63.53
64833;HTU21D;51290;45.060;38.948;2023-03-04T13:54:30;9.81;63.47
64833;HTU21D;51290;45.060;38.948;2023-03-04T14:02:14;9.80;63.73
64833;HTU21D;51290;45.060;38.948;2023-03-04T14:04:46;9.79;63.71
64833;HTU21D;51290;45.060;38.948;2023-03-04T14:09:57;9.72;63.70
64833;HTU21D;51290;45.060;38.948;2023-03-04T14:12:24;9.68;63.81
64833;HTU21D;51290;45.060;38.948;2023-03-04T14:14:54;9.66;63.97
64833;HTU21D;51290;45.060;38.948;2023-03-04T14:17:27;9.63;64.01
64833;HTU21D;51290;45.060;38.948;2023-03-04T14:19:55;9.60;63.97
64833;HTU21D;51290;45.060;38.948;2023-03-04T14:22:27;9.55;64.19
64833;HTU21D;51290;45.060;38.948;2023-03-04T14:27:30;9.48;64.25
64833;HTU21D;51290;45.060;38.948;2023-03-04T14:30:00;9.44;64.30
64833;HTU21D;51290;45.060;38.948;2023-03-04T14:32:27;9.41;64.41
64833;HTU21D;51290;45.060;38.948;2023-03-04T14:34:57;9.39;64.44
64833;HTU21D;51290;45.060;38.948;2023-03-04T14:37:29;9.36;64.47
64833;HTU21D;51290;45.060;38.948;2023-03-04T14:40:00;9.36;64.56
64833;HTU21D;51290;45.060;38.948;2023-03-04T14:42:38;9.37;64.56
64833;HTU21D;51290;45.060;38.948;2023-03-04T14:45:12;9.35;64.56
64833;HTU21D;51290;45.060;38.948;2023-03-04T14:47:43;9.34;64.58
64833;HTU21D;51290;45.060;38.948;2023-03-04T14:50:17;9.33;64.59
64833;HTU21D;51290;45.060;38.948;2023-03-04T14:52:47;9.31;64.71
64833;HTU21D;51290;45.060;38.948;2023-03-04T14:55:25;9.27;64.76
64833;HTU21D;51290;45.060;38.948;2023-03-04T14:58:07;9.24;64.92
64833;HTU21D;51290;45.060;38.948;2023-03-04T15:00:37;9.22;64.90
64833;HTU21D;51290;45.060;38.948;2023-03-04T15:05:49;9.15;65.03
64833;HTU21D;51290;45.060;38.948;2023-03-04T15:08:27;9.12;65.21
64833;HTU21D;51290;45.060;38.948;2023-03-04T15:10:59;9.09;65.39
64833;HTU21D;51290;45.060;38.948;2023-03-04T15:13:58;9.08;65.42
64833;HTU21D;51290;45.060;38.948;2023-03-04T15:16:28;9.07;65.43
64833;HTU21D;51290;45.060;38.948;2023-03-04T15:19:04;9.05;65.57
64833;HTU21D;51290;45.060;38.948;2023-03-04T15:21:39;9.05;65.62
64833;HTU21D;51290;45.060;38.948;2023-03-04T15:24:07;9.03;65.71
64833;HTU21D;51290;45.060;38.948;2023-03-04T15:26:37;9.02;65.78
64833;HTU21D;51290;45.060;38.948;2023-03-04T15:29:24;9.01;65.91
64833;HTU21D;51290;45.060;38.948;2023-03-04T15:31:50;9.01;65.98
64833;HTU21D;51290;45.060;38.948;2023-03-04T15:34:18;9.01;65.79
64833;HTU21D;51290;45.060;38.948;2023-03-04T15:36:46;9.01;65.83
64833;HTU21D;51290;45.060;38.948;2023-03-04T15:39:14;9.01;65.87
64833;HTU21D;51290;45.060;38.948;2023-03-04T15:41:41;9.02;65.80
64833;HTU21D;51290;45.060;38.948;2023-03-04T15:44:08;9.00;65.95
64833;HTU21D;51290;45.060;38.948;2023-03-04T15:46:34;9.01;66.21
64833;HTU21D;51290;45.060;38.948;2023-03-04T15:49:00;9.02;66.24
64833;HTU21D;51290;45.060;38.948;2023-03-04T15:51:30;9.02;66.30
64833;HTU21D;51290;45.060;38.948;2023-03-04T15:53:57;9.02;66.18
64833;HTU21D;51290;45.060;38.948;2023-03-04T15:56:27;9.03;66.04
64833;HTU21D;51290;45.060;38.948;2023-03-04T15:59:10;9.00;66.09
64833;HTU21D;51290;45.060;38.948;2023-03-04T16:01:36;9.00;66.02
64833;HTU21D;51290;45.060;38.948;2023-03-04T16:04:02;8.98;65.97
64833;HTU21D;51290;45.060;38.948;2023-03-04T16:06:30;8.97;66.00
64833;HTU21D;51290;45.060;38.948;2023-03-04T16:08:58;8.97;65.98
64833;HTU21D;51290;45.060;38.948;2023-03-04T16:11:26;8.98;65.98
64833;HTU21D;51290;45.060;38.948;2023-03-04T16:13:53;8.98;65.93
64833;HTU21D;51290;45.060;38.948;2023-03-04T16:16:19;8.98;65.88
64833;HTU21D;51290;45.060;38.948;2023-03-04T16:18:46;9.00;65.88
64833;HTU21D;51290;45.060;38.948;2023-03-04T16:21:18;9.03;65.85
64833;HTU21D;51290;45.060;38.948;2023-03-04T16:23:49;9.04;65.89
64833;HTU21D;51290;45.060;38.948;2023-03-04T16:26:25;9.04;65.88
64833;HTU21D;51290;45.060;38.948;2023-03-04T16:28:52;9.06;65.87
64833;HTU21D;51290;45.060;38.948;2023-03-04T16:31:19;9.05;65.91
64833;HTU21D;51290;45.060;38.948;2023-03-04T16:33:45;9.03;65.88
64833;HTU21D;51290;45.060;38.948;2023-03-04T16:36:20;9.01;65.90
64833;HTU21D;51290;45.060;38.948;2023-03-04T16:38:47;9.01;65.89
64833;HTU21D;51290;45.060;38.948;2023-03-04T16:41:15;8.97;65.95
64833;HTU21D;51290;45.060;38.948;2023-03-04T16:43:42;8.96;65.95
64833;HTU21D;51290;45.060;38.948;2023-03-04T16:46:12;8.94;65.91
64833;HTU21D;51290;45.060;38.948;2023-03-04T16:48:38;8.95;66.07
64833;HTU21D;51290;45.060;38.948;2023-03-04T16:51:12;8.94;66.03
64833;HTU21D;51290;45.060;38.948;2023-03-04T16:53:41;8.93;66.10
64833;HTU21D;51290;45.060;38.948;2023-03-04T16:56:14;8.94;66.21
64833;HTU21D;51290;45.060;38.948;2023-03-04T16:58:41;8.92;66.29
64833;HTU21D;51290;45.060;38.948;2023-03-04T17:01:19;8.90;66.27
64833;HTU21D;51290;45.060;38.948;2023-03-04T17:03:46;8.87;66.27
64833;HTU21D;51290;45.060;38.948;2023-03-04T17:06:14;8.85;66.34